Time;durP1;ratioP1;P1;durP2;ratioP2;P2;SDS_P1;SDS_P2;PMS_P1;PMS_P2;Temp;Humidity;BMP_temperature;BMP_pressure;BME280_temperature;BME280_humidity;BME280_pressure;Samples;Min_cycle;Max_cycle;Signal;HPM_P1;HPM_P2
2023/09/19 00:01:47;;;;;;;5.32;4.53;;;;;;;15.96;97.60;63649.91;5023477;28;20202;-79
2023/09/19 00:04:15;;;;;;;4.68;4.38;;;;;;;16.01;97.07;63655.09;5024019;28;20230;-78
2023/09/19 00:06:44;;;;;;;5.10;4.72;;;;;;;15.95;97.78;63651.94;5023815;28;20278;-78
2023/09/19 00:09:11;;;;;;;5.00;4.47;;;;;;;15.84;98.77;63637.94;5013615;28;20246;-79
2023/09/19 00:11:38;;;;;;;5.57;4.95;;;;;;;15.79;98.55;63629.66;5022665;28;20206;-77
2023/09/19 00:14:08;;;;;;;5.22;4.30;;;;;;;15.70;99.37;63618.25;5014606;28;20249;-78
2023/09/19 00:16:35;;;;;;;5.13;4.70;;;;;;;15.69;99.47;63621.81;5025708;28;20538;-76
2023/09/19 00:19:08;;;;;;;5.05;4.68;;;;;;;15.75;99.84;63630.63;5022156;28;20226;-78
2023/09/19 00:21:37;;;;;;;5.55;5.03;;;;;;;15.73;100.00;63626.50;5025835;28;20362;-78
2023/09/19 00:24:05;;;;;;;6.68;6.07;;;;;;;15.74;100.00;63627.00;5011849;28;20226;-77
2023/09/19 00:26:34;;;;;;;5.20;4.80;;;;;;;15.71;100.00;63621.34;5025548;28;20202;-77
2023/09/19 00:29:05;;;;;;;7.80;5.82;;;;;;;15.71;100.00;63623.91;5012363;28;20214;-78
2023/09/19 00:31:33;;;;;;;7.13;6.53;;;;;;;15.65;100.00;63615.09;5030363;28;20431;-77
2023/09/19 00:34:03;;;;;;;6.38;5.65;;;;;;;15.53;100.00;63605.69;5023003;28;20218;-77
2023/09/19 00:36:30;;;;;;;6.07;5.63;;;;;;;15.50;100.00;63604.63;5019953;28;20203;-79
2023/09/19 00:38:59;;;;;;;6.88;6.28;;;;;;;15.53;100.00;63605.19;5030929;28;20225;-78
2023/09/19 00:41:30;;;;;;;6.50;6.00;;;;;;;15.49;100.00;63603.59;5021006;28;20205;-78
2023/09/19 00:43:56;;;;;;;7.53;6.72;;;;;;;15.50;100.00;63602.59;5025836;28;20285;-78
2023/09/19 00:46:23;;;;;;;7.25;6.65;;;;;;;15.43;100.00;63590.19;5013179;28;20218;-78
2023/09/19 00:48:50;;;;;;;7.30;6.38;;;;;;;15.22;100.00;63575.53;5022987;28;20229;-77
2023/09/19 00:51:20;;;;;;;6.50;5.90;;;;;;;15.15;100.00;63563.13;5024585;28;20203;-76
2023/09/19 00:53:48;;;;;;;7.32;6.65;;;;;;;15.16;100.00;63561.56;5022191;28;20408;-78
2023/09/19 00:56:18;;;;;;;6.88;6.18;;;;;;;15.09;100.00;63557.41;5023090;28;20500;-78
2023/09/19 00:58:46;;;;;;;6.18;5.65;;;;;;;15.04;100.00;63552.72;5018092;28;20261;-79
2023/09/19 01:01:14;;;;;;;6.88;6.20;;;;;;;14.92;100.00;63539.72;5024855;28;20213;-78
2023/09/19 01:03:42;;;;;;;6.68;5.95;;;;;;;14.86;100.00;63533.50;5023632;28;20630;-78
2023/09/19 01:06:09;;;;;;;9.05;6.00;;;;;;;14.74;100.00;63524.13;5037059;28;20217;-79
2023/09/19 01:08:36;;;;;;;6.47;5.93;;;;;;;14.74;100.00;63526.69;5031603;28;20205;-77
2023/09/19 01:11:12;;;;;;;6.32;5.68;;;;;;;14.66;100.00;63513.25;5029112;28;20274;-77
2023/09/19 01:13:57;;;;;;;8.25;5.97;;;;;;;14.67;100.00;63513.75;5012898;28;20265;-77
2023/09/19 01:16:35;;;;;;;8.63;6.75;;;;;;;14.70;100.00;63517.38;5026159;28;20262;-78
2023/09/19 01:19:23;;;;;;;9.95;7.10;;;;;;;14.71;100.00;63517.91;5022193;28;20218;-77
2023/09/19 01:22:00;;;;;;;7.13;6.53;;;;;;;14.73;100.00;63517.94;5023098;28;20265;-77
2023/09/19 01:25:08;;;;;;;7.78;7.07;;;;;;;14.70;100.00;63519.94;5024238;28;20597;-79
2023/09/19 01:28:07;;;;;;;8.77;7.93;;;;;;;14.68;100.00;63515.31;5025101;28;20202;-77
2023/09/19 01:30:43;;;;;;;7.03;6.30;;;;;;;14.68;100.00;63517.38;5020316;28;20218;-78
2023/09/19 01:33:10;;;;;;;7.20;6.60;;;;;;;14.63;100.00;63514.72;5026664;28;20198;-78
2023/09/19 01:35:39;;;;;;;8.20;7.22;;;;;;;14.62;100.00;63506.00;5026917;28;20492;-78
2023/09/19 01:38:09;;;;;;;7.90;7.18;;;;;;;14.70;100.00;63514.81;5026428;28;20245;-78
2023/09/19 01:40:43;;;;;;;7.40;6.82;;;;;;;14.70;100.00;63519.44;5025685;28;20277;-77
2023/09/19 01:43:18;;;;;;;8.35;7.50;;;;;;;14.66;100.00;63513.25;5024590;28;20209;-79
2023/09/19 01:45:58;;;;;;;9.38;7.70;;;;;;;14.63;100.00;63509.59;5024491;28;20237;-79
2023/09/19 01:48:38;;;;;;;8.07;7.30;;;;;;;14.39;100.00;63487.25;5037452;28;20229;-79
2023/09/19 01:51:09;;;;;;;8.30;7.50;;;;;;;14.35;100.00;63480.53;5015747;28;20217;-78
2023/09/19 01:53:42;;;;;;;8.13;7.10;;;;;;;14.34;100.00;63484.63;5026539;28;20205;-77
2023/09/19 01:56:13;;;;;;;8.00;7.25;;;;;;;14.38;100.00;63486.72;5024963;28;20209;-79
2023/09/19 01:58:43;;;;;;;7.60;6.93;;;;;;;14.44;100.00;63487.84;5027767;28;20385;-78
2023/09/19 02:01:16;;;;;;;7.40;6.80;;;;;;;14.40;100.00;63488.81;5032733;28;20236;-78
2023/09/19 02:03:44;;;;;;;8.73;7.18;;;;;;;14.39;100.00;63482.63;5035086;28;20464;-77
2023/09/19 02:06:15;;;;;;;7.72;6.80;;;;;;;14.37;100.00;63480.56;5025814;28;20273;-77
2023/09/19 02:08:42;;;;;;;9.55;7.03;;;;;;;14.34;100.00;63482.06;5027877;28;20202;-78
2023/09/19 02:11:10;;;;;;;10.07;7.95;;;;;;;14.29;100.00;63479.94;5028906;28;20198;-78
2023/09/19 02:13:38;;;;;;;8.15;7.35;;;;;;;14.25;100.00;63470.13;5026392;28;20199;-77
2023/09/19 02:16:06;;;;;;;8.95;7.72;;;;;;;14.15;100.00;63467.44;5026281;28;20202;-77
2023/09/19 02:18:35;;;;;;;8.48;7.68;;;;;;;14.22;100.00;63467.50;5027936;28;20205;-79
2023/09/19 02:21:03;;;;;;;8.23;7.38;;;;;;;14.18;100.00;63468.50;5023331;28;20206;-80
2023/09/19 02:23:31;;;;;;;12.20;8.10;;;;;;;14.21;100.00;63471.59;5029853;28;20270;-77
2023/09/19 02:26:00;;;;;;;9.30;7.47;;;;;;;14.27;100.00;63472.22;5031586;28;20241;-77
2023/09/19 02:28:29;;;;;;;8.52;7.75;;;;;;;14.24;100.00;63469.59;5024028;28;20379;-78
2023/09/19 02:30:57;;;;;;;7.80;7.07;;;;;;;14.25;100.00;63468.09;5027573;28;20439;-77
2023/09/19 02:33:24;;;;;;;8.07;7.35;;;;;;;14.14;100.00;63458.69;5031421;28;20206;-79
2023/09/19 02:35:57;;;;;;;11.68;8.23;;;;;;;13.94;100.00;63441.53;5024525;28;20298;-78
2023/09/19 02:38:24;;;;;;;7.60;6.82;;;;;;;13.97;100.00;63438.47;5044253;28;20206;-78
2023/09/19 02:40:51;;;;;;;8.50;7.63;;;;;;;13.97;100.00;63448.72;5035254;28;20274;-77
2023/09/19 02:43:19;;;;;;;7.50;6.80;;;;;;;13.93;100.00;63439.97;5031626;28;20182;-77
2023/09/19 02:45:46;;;;;;;7.88;7.18;;;;;;;13.94;100.00;63441.03;5040095;28;20244;-78
2023/09/19 02:48:14;;;;;;;8.38;7.35;;;;;;;13.87;100.00;63431.19;5032878;28;20547;-76
2023/09/19 02:50:42;;;;;;;7.75;7.05;;;;;;;13.86;100.00;63427.59;5031877;28;20217;-77
2023/09/19 02:53:10;;;;;;;7.55;6.85;;;;;;;13.89;100.00;63433.78;5026351;28;20202;-76
2023/09/19 02:55:38;;;;;;;7.57;6.88;;;;;;;13.90;100.00;63436.88;5028416;28;20255;-76
2023/09/19 02:58:07;;;;;;;8.32;7.35;;;;;;;13.96;100.00;63437.47;5028666;28;20492;-76
2023/09/19 03:00:35;;;;;;;7.75;6.95;;;;;;;13.99;100.00;63443.66;5033005;28;20309;-77
2023/09/19 03:03:02;;;;;;;8.45;7.65;;;;;;;14.04;100.00;63450.88;5024474;28;20202;-77
2023/09/19 03:05:30;;;;;;;8.77;7.80;;;;;;;14.03;100.00;63447.78;5023970;28;20233;-77
2023/09/19 03:08:00;;;;;;;9.13;7.47;;;;;;;13.94;100.00;63433.34;5043754;28;20201;-77
2023/09/19 03:10:29;;;;;;;8.65;7.85;;;;;;;14.02;100.00;63446.75;5019187;28;20227;-78
2023/09/19 03:12:59;;;;;;;9.27;8.20;;;;;;;14.04;100.00;63448.84;5026470;28;20206;-78
2023/09/19 03:15:27;;;;;;;8.80;7.47;;;;;;;13.99;100.00;63443.13;5028199;28;20227;-79
2023/09/19 03:17:54;;;;;;;12.48;8.40;;;;;;;14.00;100.00;63442.13;5026001;28;20274;-80
2023/09/19 03:20:22;;;;;;;10.77;7.88;;;;;;;14.05;100.00;63449.88;5019594;28;20222;-78
2023/09/19 03:22:49;;;;;;;11.20;6.90;;;;;;;14.07;100.00;63454.50;5026822;28;20503;-79
2023/09/19 03:25:17;;;;;;;7.82;7.15;;;;;;;14.09;100.00;63456.59;5027984;28;20238;-78
2023/09/19 03:27:46;;;;;;;9.05;7.63;;;;;;;13.87;100.00;63428.63;5032710;28;20245;-79
2023/09/19 03:30:13;;;;;;;8.70;7.90;;;;;;;13.69;100.00;63412.50;5030053;28;20478;-78
2023/09/19 03:32:46;;;;;;;10.23;8.27;;;;;;;13.78;100.00;63421.84;5022093;28;21559;-78
2023/09/19 03:35:13;;;;;;;9.98;7.97;;;;;;;13.80;100.00;63429.03;5023050;28;20226;-79
2023/09/19 03:37:40;;;;;;;7.80;7.13;;;;;;;13.80;100.00;63427.00;5011975;28;20206;-77
2023/09/19 03:40:10;;;;;;;8.48;6.93;;;;;;;13.83;100.00;63430.13;5036943;28;20239;-78
2023/09/19 03:42:39;;;;;;;8.70;7.80;;;;;;;13.87;100.00;63424.03;5032441;28;20205;-78
2023/09/19 03:45:11;;;;;;;8.23;7.43;;;;;;;13.89;100.00;63436.34;5025983;28;20445;-77
2023/09/19 03:47:39;;;;;;;11.05;7.70;;;;;;;13.91;100.00;63440.44;5024580;28;20234;-78
2023/09/19 03:50:08;;;;;;;8.02;7.22;;;;;;;13.91;100.00;63440.44;5023350;28;20246;-78
2023/09/19 03:52:35;;;;;;;7.35;6.65;;;;;;;13.90;100.00;63431.75;5026822;28;20207;-77
2023/09/19 03:55:04;;;;;;;9.63;7.90;;;;;;;13.86;100.00;63433.22;5024362;28;20570;-76
2023/09/19 03:57:32;;;;;;;11.48;8.07;;;;;;;13.87;100.00;63429.13;5012488;28;20207;-78
2023/09/19 03:59:59;;;;;;;8.00;7.30;;;;;;;13.85;100.00;63429.13;5028899;28;20234;-80
2023/09/19 04:02:32;;;;;;;8.90;8.10;;;;;;;13.84;100.00;63433.19;5027078;28;20199;-76
2023/09/19 04:05:00;;;;;;;11.27;8.73;;;;;;;13.89;100.00;63438.38;5014060;28;20294;-79
2023/09/19 04:07:28;;;;;;;9.05;8.13;;;;;;;13.90;100.00;63437.38;5027074;28;20203;-77
2023/09/19 04:09:56;;;;;;;8.65;7.72;;;;;;;13.91;100.00;63440.97;5027311;28;20515;-77
2023/09/19 04:12:23;;;;;;;8.23;7.53;;;;;;;13.90;100.00;63431.75;5015045;28;20211;-80
2023/09/19 04:14:51;;;;;;;9.20;8.23;;;;;;;13.92;100.00;63436.38;5016896;28;20273;-78
2023/09/19 04:17:18;;;;;;;14.98;8.73;;;;;;;13.99;100.00;63448.25;5035928;28;20217;-77
2023/09/19 04:19:48;;;;;;;11.40;9.38;;;;;;;14.02;100.00;63446.22;5043082;28;20234;-78
2023/09/19 04:22:15;;;;;;;10.88;9.35;;;;;;;14.04;100.00;63445.75;5022945;28;20215;-78
2023/09/19 04:24:42;;;;;;;8.63;7.82;;;;;;;14.09;100.00;63456.06;5025692;28;20529;-77
2023/09/19 04:27:09;;;;;;;9.45;8.10;;;;;;;14.16;100.00;63463.34;5026519;28;20199;-77
2023/09/19 04:29:37;;;;;;;9.75;7.90;;;;;;;14.20;100.00;63464.94;5024886;28;20230;-79
2023/09/19 04:32:05;;;;;;;9.35;8.35;;;;;;;14.22;100.00;63470.06;5018088;28;20251;-79
2023/09/19 04:34:34;;;;;;;9.95;8.23;;;;;;;14.22;100.00;63467.50;5035204;28;20222;-77
2023/09/19 04:37:03;;;;;;;10.98;8.27;;;;;;;14.27;100.00;63477.34;5020845;28;20215;-76
2023/09/19 04:39:30;;;;;;;8.63;6.90;;;;;;;14.14;100.00;63463.81;5022417;28;20250;-78
2023/09/19 04:41:58;;;;;;;8.10;7.40;;;;;;;14.18;100.00;63465.94;5022180;28;20266;-78
2023/09/19 04:44:25;;;;;;;9.50;7.43;;;;;;;14.27;100.00;63477.84;5025225;28;20219;-78
2023/09/19 04:46:52;;;;;;;8.20;7.35;;;;;;;14.34;100.00;63480.00;5023328;28;20234;-79
2023/09/19 04:49:20;;;;;;;10.52;7.60;;;;;;;14.52;100.00;63498.19;5018664;28;20531;-79
2023/09/19 04:51:47;;;;;;;9.18;7.47;;;;;;;14.57;100.00;63503.38;5020105;28;20201;-78
2023/09/19 04:54:15;;;;;;;11.23;7.32;;;;;;;14.66;100.00;63515.81;5025221;28;20280;-78
2023/09/19 04:56:42;;;;;;;10.00;8.32;;;;;;;14.81;100.00;63528.28;5023133;28;20237;-79
2023/09/19 04:59:10;;;;;;;7.55;6.82;;;;;;;14.93;100.00;63543.31;5022526;28;20223;-80
2023/09/19 05:01:37;;;;;;;9.10;6.93;;;;;;;15.11;100.00;63562.03;5022515;28;20215;-78
2023/09/19 05:04:05;;;;;;;7.43;6.72;;;;;;;15.31;100.00;63577.16;5026655;28;20266;-78
2023/09/19 05:06:35;;;;;;;7.93;6.78;;;;;;;15.45;100.00;63594.81;5027152;28;20230;-79
2023/09/19 05:09:05;;;;;;;6.93;6.28;;;;;;;15.71;100.00;63621.34;5022139;28;20225;-77
2023/09/19 05:11:33;;;;;;;7.38;6.68;;;;;;;15.82;100.00;63630.75;5016353;28;20230;-79
2023/09/19 05:14:03;;;;;;;7.22;6.50;;;;;;;15.88;100.00;63642.09;5021579;28;20237;-77
2023/09/19 05:16:31;;;;;;;10.68;7.28;;;;;;;15.98;100.00;63649.94;5026659;28;20222;-78
2023/09/19 05:18:59;;;;;;;9.13;7.15;;;;;;;16.21;100.00;63675.91;5024133;28;20226;-79
2023/09/19 05:21:28;;;;;;;7.38;6.68;;;;;;;16.22;100.00;63676.94;5031014;28;20261;-79
2023/09/19 05:23:55;;;;;;;7.38;6.55;;;;;;;16.09;100.00;63661.38;5024307;28;20226;-77
2023/09/19 05:26:22;;;;;;;6.93;6.30;;;;;;;15.98;100.00;63647.34;5035629;28;20248;-77
2023/09/19 05:28:51;;;;;;;6.50;5.90;;;;;;;15.92;100.00;63640.59;5025619;28;20256;-79
2023/09/19 05:31:17;;;;;;;8.30;6.53;;;;;;;16.31;100.00;63683.72;5025156;28;20229;-78
2023/09/19 05:33:44;;;;;;;10.32;7.05;;;;;;;16.69;100.00;63722.75;5031352;28;20208;-80
2023/09/19 05:36:11;;;;;;;9.27;6.60;;;;;;;16.98;100.00;63753.47;5020478;28;20238;-79
2023/09/19 05:38:40;;;;;;;9.38;6.28;;;;;;;17.13;100.00;63771.66;5020047;28;20204;-78
2023/09/19 05:41:08;;;;;;;6.25;5.72;;;;;;;17.38;100.00;63792.00;5029173;28;20209;-78
2023/09/19 05:43:38;;;;;;;5.72;5.20;;;;;;;17.33;100.00;63787.31;5028973;28;20216;-78
2023/09/19 05:46:07;;;;;;;9.88;6.15;;;;;;;17.27;100.00;63783.66;5018308;28;20242;-78
2023/09/19 05:48:35;;;;;;;5.63;4.70;;;;;;;17.53;100.00;63812.81;5036000;28;20304;-78
2023/09/19 05:51:02;;;;;;;6.97;5.32;;;;;;;17.79;99.17;63837.28;5032991;28;20202;-78
2023/09/19 05:53:29;;;;;;;6.10;5.53;;;;;;;17.83;98.69;63843.50;5025027;28;20209;-77
2023/09/19 05:55:57;;;;;;;5.60;5.15;;;;;;;18.14;97.20;63871.16;5028531;28;20206;-78
2023/09/19 05:58:23;;;;;;;6.78;4.68;;;;;;;18.06;96.23;63868.00;5028367;28;20545;-78
2023/09/19 06:00:52;;;;;;;5.57;4.78;;;;;;;18.25;95.11;63882.63;5027360;28;20213;-77
2023/09/19 06:03:20;;;;;;;4.50;4.20;;;;;;;18.46;94.97;63911.22;5020193;28;20226;-79
2023/09/19 06:05:52;;;;;;;4.95;4.40;;;;;;;18.60;93.69;63923.25;5022710;28;20230;-77
2023/09/19 06:08:19;;;;;;;5.00;4.18;;;;;;;18.42;93.06;63902.94;5026964;28;20212;-76
2023/09/19 06:10:48;;;;;;;4.68;4.28;;;;;;;18.47;93.72;63907.63;5025421;28;20298;-78
2023/09/19 06:13:15;;;;;;;4.18;3.92;;;;;;;18.63;92.13;63926.38;5017294;28;20591;-77
2023/09/19 06:15:43;;;;;;;5.07;4.63;;;;;;;18.52;94.19;63912.84;5026223;28;20237;-76
2023/09/19 06:18:15;;;;;;;4.97;4.18;;;;;;;18.57;95.34;63918.03;5034514;28;20208;-76
2023/09/19 06:20:44;;;;;;;5.82;4.25;;;;;;;18.31;94.57;63891.47;5028736;28;20222;-77
2023/09/19 06:23:11;;;;;;;4.97;4.22;;;;;;;18.31;93.72;63891.47;5029080;28;20498;-78
2023/09/19 06:25:39;;;;;;;5.63;4.20;;;;;;;18.43;93.98;63909.13;5025190;28;20229;-78
2023/09/19 06:28:11;;;;;;;5.07;4.50;;;;;;;18.68;92.39;63931.56;5029855;28;20198;-77
2023/09/19 06:30:40;;;;;;;4.63;4.32;;;;;;;18.85;91.53;63949.28;5022992;28;20222;-80
2023/09/19 06:33:07;;;;;;;7.35;4.28;;;;;;;19.07;89.06;63974.81;5027287;28;20210;-76
2023/09/19 06:35:35;;;;;;;7.72;4.72;;;;;;;19.23;89.25;63986.84;5023383;28;20227;-79
2023/09/19 06:38:05;;;;;;;4.35;3.90;;;;;;;19.46;88.24;64013.44;5022391;28;20218;-76
2023/09/19 06:40:32;;;;;;;5.32;4.28;;;;;;;19.70;83.11;64043.13;5022631;28;20239;-78
2023/09/19 06:43:01;;;;;;;3.90;3.63;;;;;;;19.70;82.92;64037.94;5020821;28;20470;-77
2023/09/19 06:45:29;;;;;;;5.45;4.15;;;;;;;19.50;83.48;64017.09;5022468;28;20660;-75
2023/09/19 06:47:57;;;;;;;4.75;4.20;;;;;;;19.49;82.55;64013.47;5019627;28;20389;-76
2023/09/19 06:50:25;;;;;;;5.50;5.03;;;;;;;19.34;84.89;64000.41;5020426;28;20228;-78
2023/09/19 06:52:53;;;;;;;4.45;4.05;;;;;;;19.25;85.84;63991.53;5016781;28;20230;-78
2023/09/19 06:55:24;;;;;;;4.50;4.07;;;;;;;19.06;86.83;63971.72;5021462;28;20218;-77
2023/09/19 06:57:54;;;;;;;5.00;4.38;;;;;;;19.11;86.39;63971.75;5029436;28;20199;-77
2023/09/19 07:00:23;;;;;;;6.28;5.10;;;;;;;18.78;89.82;63945.09;5023952;28;20222;-77
2023/09/19 07:03:00;;;;;;;4.32;3.85;;;;;;;19.10;89.39;63975.88;5021310;28;20413;-79
2023/09/19 07:05:28;;;;;;;4.50;4.10;;;;;;;18.94;86.92;63961.78;5017851;28;20226;-78
2023/09/19 07:07:56;;;;;;;5.05;4.65;;;;;;;18.68;89.18;63931.56;5026462;28;20210;-79
2023/09/19 07:10:27;;;;;;;5.50;5.00;;;;;;;18.96;87.52;63960.75;5029207;28;20234;-77
2023/09/19 07:12:58;;;;;;;4.90;4.50;;;;;;;18.98;87.12;63960.78;5025273;28;20479;-77
2023/09/19 07:15:25;;;;;;;4.97;4.55;;;;;;;19.14;86.78;63980.03;5012190;28;20221;-76
2023/09/19 07:17:56;;;;;;;6.53;4.75;;;;;;;19.46;86.70;64007.75;5020427;28;20237;-77
2023/09/19 07:20:26;;;;;;;6.38;4.95;;;;;;;19.66;84.49;64033.25;5045839;28;20473;-77
2023/09/19 07:22:54;;;;;;;6.35;4.72;;;;;;;19.71;84.84;64035.91;5027955;28;20830;-77
2023/09/19 07:25:21;;;;;;;4.70;3.88;;;;;;;19.92;84.87;64057.78;5015684;28;20282;-77
2023/09/19 07:27:51;;;;;;;4.97;4.57;;;;;;;20.01;82.37;64072.88;5024655;28;20252;-78
2023/09/19 07:30:18;;;;;;;6.10;4.93;;;;;;;20.10;82.02;64079.16;5038486;28;20248;-77
2023/09/19 07:32:45;;;;;;;6.60;4.72;;;;;;;20.14;80.62;64080.75;5027514;28;20198;-78
2023/09/19 07:35:12;;;;;;;6.88;4.25;;;;;;;20.22;80.60;64094.81;5028169;28;20231;-74
2023/09/19 07:37:39;;;;;;;5.28;4.72;;;;;;;19.57;82.88;64023.88;5026161;28;20256;-75
2023/09/19 07:40:09;;;;;;;5.70;4.82;;;;;;;19.39;84.90;64003.03;5015434;28;20237;-77
2023/09/19 07:42:36;;;;;;;7.07;5.45;;;;;;;19.75;84.65;64045.75;5020453;28;20198;-78
2023/09/19 07:45:06;;;;;;;7.63;5.97;;;;;;;20.04;83.25;64076.00;5016385;28;20218;-78
2023/09/19 07:47:33;;;;;;;5.88;4.82;;;;;;;20.09;82.09;64081.22;5012565;28;20238;-76
2023/09/19 07:50:02;;;;;;;5.55;4.90;;;;;;;19.82;82.10;64053.06;5011202;28;20462;-77
2023/09/19 07:52:29;;;;;;;6.30;5.63;;;;;;;20.10;81.92;64081.75;5012900;28;20191;-79
2023/09/19 07:54:57;;;;;;;7.07;5.22;;;;;;;20.21;80.12;64086.00;5013800;28;20234;-77
2023/09/19 07:57:24;;;;;;;5.53;5.03;;;;;;;20.47;80.16;64112.63;5014176;28;20257;-79
2023/09/19 07:59:51;;;;;;;9.48;5.35;;;;;;;20.56;80.28;64127.19;5015868;28;20253;-77
2023/09/19 08:02:20;;;;;;;7.90;5.03;;;;;;;20.79;79.84;64148.63;5017866;28;20230;-79
2023/09/19 08:04:48;;;;;;;7.63;4.53;;;;;;;20.97;78.63;64169.47;5017592;28;20285;-79
2023/09/19 08:07:16;;;;;;;6.45;5.72;;;;;;;20.99;77.70;64166.91;5009548;28;20254;-80
2023/09/19 08:09:46;;;;;;;5.38;4.78;;;;;;;21.31;74.00;64205.50;5014098;28;20411;-77
2023/09/19 08:12:14;;;;;;;9.73;4.70;;;;;;;21.54;70.17;64232.13;5016758;28;20840;-79
2023/09/19 08:14:42;;;;;;;6.13;5.15;;;;;;;21.69;70.88;64245.22;5015484;28;20261;-79
2023/09/19 08:17:09;;;;;;;6.13;5.50;;;;;;;21.85;71.19;64256.25;5019911;28;20427;-78
2023/09/19 08:19:41;;;;;;;6.65;6.00;;;;;;;21.72;70.04;64247.81;5015218;28;20230;-79
2023/09/19 08:22:10;;;;;;;8.27;5.53;;;;;;;21.35;72.50;64209.16;5016480;28;20223;-78
2023/09/19 08:24:37;;;;;;;6.22;5.57;;;;;;;21.55;70.88;64230.56;5013048;28;20214;-79
2023/09/19 08:27:08;;;;;;;5.53;5.10;;;;;;;21.54;69.35;64226.94;5017204;28;20276;-77
2023/09/19 08:29:35;;;;;;;10.70;6.47;;;;;;;21.50;71.31;64222.25;5017482;28;20306;-77
2023/09/19 08:32:03;;;;;;;6.55;5.28;;;;;;;21.76;72.48;64252.53;5012988;28;20250;-78
2023/09/19 08:34:32;;;;;;;8.70;5.85;;;;;;;21.38;71.57;64209.72;5013348;28;20233;-79
2023/09/19 08:37:01;;;;;;;6.43;5.82;;;;;;;21.62;73.08;64239.97;5011824;28;20214;-77
2023/09/19 08:39:30;;;;;;;5.68;5.28;;;;;;;21.84;71.13;64257.78;5013747;28;20255;-78
2023/09/19 08:41:59;;;;;;;5.35;4.72;;;;;;;21.87;68.82;64266.09;5016148;28;20203;-77
2023/09/19 08:44:27;;;;;;;8.85;5.65;;;;;;;21.83;68.63;64261.94;5013757;28;20226;-76
2023/09/19 08:46:56;;;;;;;9.93;4.88;;;;;;;21.90;68.19;64260.94;5013451;28;20252;-76
2023/09/19 08:49:34;;;;;;;4.47;4.13;;;;;;;21.73;68.13;64246.28;5012936;28;20233;-77
2023/09/19 08:52:11;;;;;;;8.23;4.95;;;;;;;21.47;70.69;64221.69;5017131;28;20208;-77
2023/09/19 08:54:41;;;;;;;5.70;4.82;;;;;;;21.41;70.07;64215.97;5012612;28;20229;-77
2023/09/19 08:57:10;;;;;;;7.35;5.88;;;;;;;21.17;72.43;64185.72;5014648;28;20261;-77
2023/09/19 08:59:39;;;;;;;5.63;5.13;;;;;;;21.64;71.27;64236.88;5012334;28;20210;-77
2023/09/19 09:02:13;;;;;;;8.00;5.53;;;;;;;22.21;67.84;64293.84;5012155;28;20511;-77
2023/09/19 09:04:41;;;;;;;5.45;4.80;;;;;;;22.71;64.58;64351.34;5015439;28;20226;-77
2023/09/19 09:07:13;;;;;;;6.75;4.88;;;;;;;22.94;62.46;64377.47;5018111;28;20229;-77
2023/09/19 09:09:42;;;;;;;5.00;4.47;;;;;;;22.98;63.41;64381.66;5020997;28;20264;-76
2023/09/19 09:12:12;;;;;;;7.78;5.05;;;;;;;22.88;62.79;64366.00;5019890;28;20198;-75
2023/09/19 09:14:39;;;;;;;9.00;5.45;;;;;;;22.73;64.64;64352.91;5020977;28;20290;-76
2023/09/19 09:17:07;;;;;;;5.20;4.72;;;;;;;22.85;62.73;64363.38;5016119;28;20557;-76
2023/09/19 09:19:34;;;;;;;5.85;4.53;;;;;;;22.81;63.84;64364.38;5012880;28;20277;-76
2023/09/19 09:22:08;;;;;;;6.38;4.68;;;;;;;22.30;63.48;64305.34;5016349;28;20221;-76
2023/09/19 09:24:39;;;;;;;5.68;5.07;;;;;;;22.29;64.23;64307.41;5019240;28;20217;-76
2023/09/19 09:27:08;;;;;;;6.15;5.47;;;;;;;22.28;64.32;64308.97;5014942;28;20789;-77
2023/09/19 09:29:49;;;;;;;5.70;5.18;;;;;;;22.57;64.67;64333.59;5019453;28;20277;-77
2023/09/19 09:32:23;;;;;;;5.03;4.45;;;;;;;22.83;61.99;64358.69;5022587;28;20201;-76
2023/09/19 09:34:53;;;;;;;5.82;4.70;;;;;;;22.85;62.79;64365.44;5012796;28;20297;-77
2023/09/19 09:37:21;;;;;;;5.15;4.75;;;;;;;22.83;63.04;64360.78;5016838;28;20266;-77
2023/09/19 09:39:56;;;;;;;4.43;4.03;;;;;;;22.87;62.52;64368.06;5020507;28;20528;-77
2023/09/19 09:42:35;;;;;;;5.38;4.97;;;;;;;22.83;62.26;64360.78;5015900;28;20206;-77
2023/09/19 09:45:28;;;;;;;5.18;4.78;;;;;;;22.83;61.44;64363.88;5017598;28;20296;-76
2023/09/19 09:47:55;;;;;;;5.45;4.07;;;;;;;22.79;62.89;64356.59;5013346;28;20244;-75
2023/09/19 09:50:39;;;;;;;14.30;4.75;;;;;;;23.04;62.81;64384.81;5020325;28;20228;-76
2023/09/19 09:53:21;;;;;;;6.47;4.65;;;;;;;23.30;60.53;64412.53;5015113;28;20423;-77
2023/09/19 09:56:05;;;;;;;10.95;4.75;;;;;;;23.58;59.41;64441.84;5017778;28;20217;-78
2023/09/19 09:58:33;;;;;;;7.90;4.22;;;;;;;23.54;58.59;64434.53;5011917;28;20269;-76
2023/09/19 10:01:08;;;;;;;5.72;4.47;;;;;;;23.72;58.51;64456.50;5019014;28;20198;-77
2023/09/19 10:03:39;;;;;;;5.18;4.20;;;;;;;23.93;60.36;64480.53;5025131;28;20530;-77
2023/09/19 10:06:24;;;;;;;5.18;4.70;;;;;;;24.24;57.17;64507.81;5021955;28;20483;-76
2023/09/19 10:09:19;;;;;;;6.53;4.88;;;;;;;24.18;57.64;64506.22;5020366;28;20289;-79
2023/09/19 10:11:54;;;;;;;4.22;3.92;;;;;;;24.07;58.53;64492.09;5019564;28;20202;-77
2023/09/19 10:14:26;;;;;;;5.28;4.78;;;;;;;24.37;56.51;64523.47;5012694;28;20234;-76
2023/09/19 10:17:03;;;;;;;4.60;4.30;;;;;;;24.12;55.94;64497.84;5019235;28;20217;-74
2023/09/19 10:19:37;;;;;;;6.25;4.65;;;;;;;23.95;56.53;64483.16;5015431;28;20272;-75
2023/09/19 10:22:08;;;;;;;5.97;4.03;;;;;;;23.73;57.76;64459.59;5014938;28;20210;-75
2023/09/19 10:24:38;;;;;;;4.90;4.50;;;;;;;23.84;56.89;64465.91;5014770;28;20366;-75
2023/09/19 10:27:08;;;;;;;4.57;4.28;;;;;;;24.03;57.62;64491.03;5012340;28;20615;-76
2023/09/19 10:29:40;;;;;;;5.32;4.93;;;;;;;23.93;57.62;64480.53;5013444;28;20226;-76
2023/09/19 10:32:08;;;;;;;5.88;5.10;;;;;;;23.97;57.61;64482.13;5015567;28;21108;-77
2023/09/19 10:34:37;;;;;;;5.15;4.72;;;;;;;24.25;55.07;64511.44;5020846;28;20221;-76
2023/09/19 10:37:09;;;;;;;4.38;4.07;;;;;;;23.99;57.18;64479.56;5020488;28;20223;-77
2023/09/19 10:39:38;;;;;;;4.80;4.47;;;;;;;24.09;56.95;64492.09;5020773;28;20265;-78
2023/09/19 10:42:08;;;;;;;7.68;5.00;;;;;;;24.60;55.16;64548.09;5016596;28;20206;-77
2023/09/19 10:44:40;;;;;;;4.15;3.85;;;;;;;24.47;53.61;64533.97;5016771;28;20225;-76
2023/09/19 10:47:07;;;;;;;5.88;4.63;;;;;;;24.67;53.68;64552.28;5017336;28;20541;-76
2023/09/19 10:49:34;;;;;;;5.25;4.75;;;;;;;24.22;54.53;64508.31;5015828;28;20445;-77
2023/09/19 10:52:02;;;;;;;7.53;4.30;;;;;;;23.96;56.46;64478.47;5015313;28;20262;-77
2023/09/19 10:54:36;;;;;;;4.80;4.30;;;;;;;23.75;56.93;64459.09;5014000;28;20233;-76
2023/09/19 10:57:05;;;;;;;8.50;4.82;;;;;;;23.66;56.01;64449.69;5016912;28;20194;-75
2023/09/19 10:59:35;;;;;;;8.90;4.75;;;;;;;23.55;58.19;64438.16;5010352;28;20416;-77
2023/09/19 11:02:18;;;;;;;5.25;4.80;;;;;;;23.75;57.45;64454.41;5020693;28;20202;-77
2023/09/19 11:04:48;;;;;;;5.28;4.78;;;;;;;24.13;55.70;64501.50;5015162;28;22954;-77
2023/09/19 11:07:16;;;;;;;4.97;4.13;;;;;;;24.66;54.39;64551.75;5015608;28;20554;-76
2023/09/19 11:09:53;;;;;;;4.97;4.53;;;;;;;25.02;52.39;64586.38;5014833;28;20218;-77
2023/09/19 11:12:51;;;;;;;5.63;4.15;;;;;;;24.53;53.02;64537.63;5015021;28;20265;-74
2023/09/19 11:15:55;;;;;;;6.05;3.95;;;;;;;24.14;55.08;64502.00;5015840;28;20237;-78
2023/09/19 11:18:56;;;;;;;5.10;4.57;;;;;;;24.51;54.83;64535.53;5011768;28;20213;-77
2023/09/19 11:21:55;;;;;;;5.53;4.72;;;;;;;24.67;54.25;64555.44;5016729;28;20351;-77
2023/09/19 11:24:35;;;;;;;6.35;4.40;;;;;;;24.71;54.35;64559.63;5017701;28;20222;-76
2023/09/19 11:27:14;;;;;;;3.50;3.30;;;;;;;24.82;53.77;64565.41;5016642;28;20423;-76
2023/09/19 11:29:41;;;;;;;6.85;4.45;;;;;;;24.76;52.63;64564.88;5013261;28;20214;-77
2023/09/19 11:32:09;;;;;;;4.18;3.88;;;;;;;25.14;51.88;64604.66;5025006;28;20273;-77
2023/09/19 11:34:47;;;;;;;4.72;4.30;;;;;;;24.86;52.21;64577.44;5034130;28;20218;-77
2023/09/19 11:38:16;;;;;;;6.07;4.55;;;;;;;24.65;52.10;64550.19;5023656;28;20273;-76
2023/09/19 11:40:55;;;;;;;5.43;4.32;;;;;;;24.40;53.14;64532.34;5020254;28;20233;-76
2023/09/19 11:43:33;;;;;;;5.25;4.60;;;;;;;24.81;52.39;64572.72;5026398;28;20261;-76
2023/09/19 11:46:04;;;;;;;4.90;4.60;;;;;;;25.20;51.23;64610.44;5024331;28;20206;-78